»·PEaware :: N210AR 49X-L52

N210AR :: 49X-L52

FLIGHT INFORMATION

Flight Status: Arrived
Operator: Privately registered:
United States
More flights under this callsign
Pilot: Max S. (16657)
Aircraft: CESSNA 172 SKYHAWK
(C172)
More flights by this aircraft type
Origin: 49X Chemehuevi Valley
United States
Destination: L52 Oceano Co
United States
More flights between these airports :: More routes between these airports
Route:
File this flight plan on PilotEdge
Remarks: ALPHABET CHALLENGE
Altitude:
(Current/Filed)
8,500ft
Speed:
(Current/Filed)
110kts
Departed: 23-Mar-20 09:25 AM
Arrived: 23-Mar-20 12:43 PM
Distance/Time
Traveled:
307nm/3:18
Distance/Time
To Go:
Arrived

Flight Plot

Page will automatically refresh every two minutes.


Map Options




Map Legend


Flown Route
Filed Route
Departure Airport
Arrival Airport
Navaid (VOR, NDB)
Fix

Horizontal Profiles

Position Reports

Time Latitude Longitude Heading Altitude Ground
Speed
23-Mar-20 09:05 34.529031 -114.430249 244 614ft 0kts
23-Mar-20 09:06 34.529031 -114.430249 244 614ft 0kts
23-Mar-20 09:07 34.529031 -114.430249 244 614ft 0kts
23-Mar-20 09:08 34.529031 -114.430249 243 614ft 0kts
23-Mar-20 09:09 34.529031 -114.430249 243 614ft 0kts
23-Mar-20 09:10 34.529031 -114.430249 243 614ft 0kts
23-Mar-20 09:11 34.529031 -114.430249 244 614ft 0kts
23-Mar-20 09:12 34.529031 -114.430249 244 614ft 0kts
23-Mar-20 09:13 34.529031 -114.430249 243 614ft 0kts
23-Mar-20 09:14 34.529031 -114.430249 243 614ft 0kts
23-Mar-20 09:15 34.529031 -114.430249 243 614ft 0kts
23-Mar-20 09:16 34.529031 -114.430249 243 614ft 0kts
23-Mar-20 09:17 34.529031 -114.430249 243 614ft 0kts
23-Mar-20 09:18 34.529031 -114.430249 243 614ft 0kts
23-Mar-20 09:19 34.529031 -114.430249 243 614ft 0kts
23-Mar-20 09:20 34.529031 -114.430249 243 614ft 0kts
23-Mar-20 09:21 34.530038 -114.430995 0 614ft 16kts
23-Mar-20 09:22 34.535537 -114.430983 306 614ft 0kts
23-Mar-20 09:23 34.535647 -114.431112 280 614ft 0kts
23-Mar-20 09:24 34.532854 -114.431963 182 615ft 59kts
23-Mar-20 09:25 34.513468 -114.432740 195 1311ft 77kts
23-Mar-20 09:26 34.502025 -114.454247 240 2099ft 79kts
23-Mar-20 09:27 34.493110 -114.478708 262 2829ft 80kts
23-Mar-20 09:28 34.495617 -114.507832 273 3491ft 89kts
23-Mar-20 09:29 34.502108 -114.537053 274 4151ft 86kts
23-Mar-20 09:30 34.502558 -114.568803 256 4477ft 106kts
23-Mar-20 09:31 34.504096 -114.604745 267 4971ft 105kts
23-Mar-20 09:32 34.508376 -114.639424 269 5466ft 102kts
23-Mar-20 09:33 34.513137 -114.672147 268 5955ft 96kts
23-Mar-20 09:34 34.517817 -114.702925 267 6448ft 88kts
23-Mar-20 09:35 34.522113 -114.731364 266 6939ft 82kts
23-Mar-20 09:36 34.526061 -114.757841 265 7429ft 76kts
23-Mar-20 09:37 34.529722 -114.782557 264 7914ft 71kts
23-Mar-20 09:38 34.533458 -114.807345 267 8276ft 80kts
23-Mar-20 09:39 34.538315 -114.835661 269 8513ft 94kts
23-Mar-20 09:40 34.544866 -114.870631 273 8508ft 112kts
23-Mar-20 09:41 34.551547 -114.908817 272 8507ft 117kts
23-Mar-20 09:42 34.558039 -114.948379 272 8507ft 119kts
23-Mar-20 09:43 34.564418 -114.988036 271 8506ft 118kts
23-Mar-20 09:44 34.570704 -115.027310 271 8503ft 112kts
23-Mar-20 09:45 34.576079 -115.061625 268 8505ft 97kts
23-Mar-20 09:46 34.580872 -115.093584 268 8506ft 93kts
23-Mar-20 09:47 34.585564 -115.124393 267 8506ft 91kts
23-Mar-20 09:48 34.590227 -115.154565 267 8506ft 89kts
23-Mar-20 09:49 34.594873 -115.184379 267 8505ft 88kts
23-Mar-20 09:50 34.599561 -115.214296 269 8510ft 94kts
23-Mar-20 09:51 34.604982 -115.246454 271 8517ft 97kts
23-Mar-20 09:52 34.610176 -115.278483 272 8525ft 95kts
23-Mar-20 09:53 34.615237 -115.310341 272 8531ft 95kts
23-Mar-20 09:54 34.620190 -115.341870 273 8537ft 94kts
23-Mar-20 09:55 34.625083 -115.373194 274 8543ft 93kts
23-Mar-20 09:56 34.629939 -115.404378 275 8547ft 93kts
23-Mar-20 09:57 34.634756 -115.435367 275 8551ft 93kts
23-Mar-20 09:58 34.639555 -115.466304 276 8554ft 92kts
23-Mar-20 09:59 34.644341 -115.497220 276 8558ft 92kts
23-Mar-20 10:00 34.649111 -115.528097 277 8562ft 92kts
23-Mar-20 10:02 34.653940 -115.558865 282 8566ft 92kts
23-Mar-20 10:03 34.663951 -115.588160 284 8571ft 92kts
23-Mar-20 10:04 34.670759 -115.618307 281 8577ft 92kts
23-Mar-20 10:05 34.676217 -115.648913 281 8584ft 92kts
23-Mar-20 10:06 34.681196 -115.679537 282 8598ft 93kts
23-Mar-20 10:07 34.686141 -115.710970 282 8599ft 94kts
23-Mar-20 10:08 34.691008 -115.742527 281 8599ft 94kts
23-Mar-20 10:09 34.695819 -115.773993 281 8598ft 94kts
23-Mar-20 10:10 34.700619 -115.805507 281 8598ft 94kts
23-Mar-20 10:11 34.705415 -115.837084 281 8598ft 94kts
23-Mar-20 10:12 34.710194 -115.868609 281 8598ft 94kts
23-Mar-20 10:13 34.714962 -115.900130 281 8598ft 94kts
23-Mar-20 10:14 34.719711 -115.931578 281 8598ft 94kts
23-Mar-20 10:15 34.724457 -115.963065 281 8597ft 94kts
23-Mar-20 10:16 34.729204 -115.994621 281 8597ft 94kts
23-Mar-20 10:17 34.733939 -116.026150 281 8597ft 94kts
23-Mar-20 10:18 34.738662 -116.057662 281 8597ft 94kts
23-Mar-20 10:19 34.743363 -116.089079 281 8597ft 94kts
23-Mar-20 10:20 34.748056 -116.120504 281 8596ft 94kts
23-Mar-20 10:21 34.752756 -116.152035 281 8596ft 94kts
23-Mar-20 10:21 34.756665 -116.178270 281 8594ft 94kts
23-Mar-20 10:22 34.761320 -116.209570 280 8587ft 93kts
23-Mar-20 10:24 34.766671 -116.245650 279 8580ft 92kts
23-Mar-20 10:24 34.770467 -116.271295 279 8575ft 91kts
23-Mar-20 10:25 34.774968 -116.301765 278 8569ft 90kts
23-Mar-20 10:27 34.780175 -116.337083 277 8563ft 90kts
23-Mar-20 10:27 34.783868 -116.362178 276 8558ft 89kts
23-Mar-20 10:28 34.788206 -116.391722 276 8568ft 85kts
23-Mar-20 10:29 34.792334 -116.420012 275 8568ft 84kts
23-Mar-20 10:30 34.796456 -116.448265 275 8523ft 86kts
23-Mar-20 10:31 34.800595 -116.479481 272 8001ft 94kts
23-Mar-20 10:32 34.801838 -116.511899 269 7474ft 95kts
23-Mar-20 10:33 34.801736 -116.544406 269 6952ft 96kts
23-Mar-20 10:34 34.801174 -116.576694 267 6521ft 89kts
23-Mar-20 10:35 34.800381 -116.604767 267 6531ft 80kts
23-Mar-20 10:36 34.799581 -116.631957 267 6530ft 79kts
23-Mar-20 10:37 34.798881 -116.658527 267 6533ft 80kts
23-Mar-20 10:38 34.798268 -116.684059 267 6533ft 82kts
23-Mar-20 10:39 34.797556 -116.712256 267 6538ft 83kts
23-Mar-20 10:40 34.796843 -116.740746 266 6528ft 83kts
23-Mar-20 10:41 34.796059 -116.768957 267 6533ft 83kts
23-Mar-20 10:42 34.795328 -116.797265 268 6532ft 83kts
23-Mar-20 10:43 34.794531 -116.825507 267 6534ft 83kts
23-Mar-20 10:44 34.793736 -116.853873 266 6533ft 83kts
23-Mar-20 10:45 34.792951 -116.882021 267 6530ft 83kts
23-Mar-20 10:46 34.792169 -116.910434 267 6530ft 84kts
23-Mar-20 10:47 34.791355 -116.938940 266 6530ft 83kts
23-Mar-20 10:48 34.790512 -116.967571 267 6537ft 84kts
23-Mar-20 10:49 34.789707 -116.997291 267 6479ft 87kts
23-Mar-20 10:50 34.788839 -117.027121 267 6484ft 88kts
23-Mar-20 10:51 34.787957 -117.057214 267 6492ft 88kts
23-Mar-20 10:52 34.787069 -117.087484 267 6491ft 89kts
23-Mar-20 10:53 34.786136 -117.118219 268 6492ft 90kts
23-Mar-20 10:54 34.785220 -117.149095 267 6493ft 91kts
23-Mar-20 10:55 34.784268 -117.180233 268 6493ft 91kts
23-Mar-20 10:56 34.783334 -117.211430 268 6496ft 90kts
23-Mar-20 10:57 34.782373 -117.242364 267 6499ft 90kts
23-Mar-20 10:58 34.781417 -117.273607 266 6498ft 91kts
23-Mar-20 10:59 34.780457 -117.304798 268 6498ft 91kts
23-Mar-20 11:00 34.779484 -117.335934 267 6498ft 91kts
23-Mar-20 11:01 34.778486 -117.366730 267 6498ft 90kts
23-Mar-20 11:02 34.777478 -117.397658 268 6501ft 91kts
23-Mar-20 11:03 34.776485 -117.429136 266 6504ft 93kts
23-Mar-20 11:04 34.775494 -117.460596 267 6495ft 92kts
23-Mar-20 11:05 34.769155 -117.490772 250 6497ft 93kts
23-Mar-20 11:06 34.762583 -117.521034 261 6501ft 91kts
23-Mar-20 11:07 34.759634 -117.551845 265 6500ft 91kts
23-Mar-20 11:08 34.757883 -117.582910 266 6502ft 91kts
23-Mar-20 11:09 34.756606 -117.613860 267 6502ft 91kts
23-Mar-20 11:10 34.757250 -117.644939 271 6497ft 90kts
23-Mar-20 11:11 34.757516 -117.675895 266 6500ft 92kts
23-Mar-20 11:12 34.756621 -117.707625 267 6492ft 93kts
23-Mar-20 11:13 34.755518 -117.739307 266 6497ft 93kts
23-Mar-20 11:14 34.754433 -117.771037 267 6494ft 92kts
23-Mar-20 11:15 34.753313 -117.802261 267 6493ft 91kts
23-Mar-20 11:16 34.752207 -117.833532 266 6488ft 91kts
23-Mar-20 11:17 34.751109 -117.864451 265 6485ft 91kts
23-Mar-20 11:18 34.749984 -117.895680 265 6488ft 91kts
23-Mar-20 11:19 34.748838 -117.926775 265 6490ft 91kts
23-Mar-20 11:20 34.747720 -117.957709 265 6493ft 91kts
23-Mar-20 11:21 34.746580 -117.988855 264 6495ft 92kts
23-Mar-20 11:22 34.745428 -118.019838 264 6496ft 92kts
23-Mar-20 11:23 34.744267 -118.050846 264 6498ft 92kts
23-Mar-20 11:24 34.743107 -118.081665 264 6500ft 92kts
23-Mar-20 11:25 34.741937 -118.112458 264 6501ft 93kts
23-Mar-20 11:26 34.740756 -118.143336 264 6501ft 93kts
23-Mar-20 11:27 34.739556 -118.174554 264 6501ft 93kts
23-Mar-20 11:28 34.738338 -118.205929 264 6513ft 92kts
23-Mar-20 11:29 34.738378 -118.237418 272 6511ft 93kts
23-Mar-20 11:30 34.742094 -118.266457 273 6969ft 81kts
23-Mar-20 11:31 34.745832 -118.292255 274 7449ft 73kts
23-Mar-20 11:32 34.749351 -118.316130 274 7932ft 69kts
23-Mar-20 11:33 34.752516 -118.338836 274 8412ft 66kts
23-Mar-20 11:34 34.755811 -118.362547 279 8578ft 91kts
23-Mar-20 11:35 34.762175 -118.395180 279 8510ft 98kts
23-Mar-20 11:36 34.767973 -118.428275 278 8509ft 98kts
23-Mar-20 11:37 34.773225 -118.461047 278 8510ft 97kts
23-Mar-20 11:38 34.778403 -118.493675 277 8510ft 97kts
23-Mar-20 11:39 34.783354 -118.525017 277 8509ft 97kts
23-Mar-20 11:40 34.788497 -118.557634 278 8509ft 97kts
23-Mar-20 11:41 34.793645 -118.590290 277 8509ft 97kts
23-Mar-20 11:42 34.798763 -118.622872 278 8509ft 97kts
23-Mar-20 11:43 34.803805 -118.654995 277 8513ft 97kts
23-Mar-20 11:44 34.808930 -118.687711 277 8514ft 98kts
23-Mar-20 11:45 34.814056 -118.720473 277 8514ft 98kts
23-Mar-20 11:46 34.819292 -118.753275 284 8511ft 99kts
23-Mar-20 11:47 34.832331 -118.783154 282 8513ft 98kts
23-Mar-20 11:48 34.839309 -118.815457 281 8515ft 98kts
23-Mar-20 11:49 34.845758 -118.848167 280 8517ft 99kts
23-Mar-20 11:50 34.851365 -118.881376 281 8519ft 100kts
23-Mar-20 11:51 34.856755 -118.915219 282 8522ft 102kts
23-Mar-20 11:52 34.862144 -118.949766 283 8524ft 104kts
23-Mar-20 11:53 34.867588 -118.984953 283 8526ft 106kts
23-Mar-20 11:54 34.873130 -119.020923 284 8529ft 108kts
23-Mar-20 11:55 34.878794 -119.057778 284 8530ft 110kts
23-Mar-20 11:56 34.884496 -119.094974 284 8529ft 111kts
23-Mar-20 11:57 34.890177 -119.132135 284 8529ft 111kts
23-Mar-20 11:58 34.895873 -119.169474 284 8529ft 111kts
23-Mar-20 11:59 34.901546 -119.206748 284 8529ft 111kts
23-Mar-20 12:00 34.907221 -119.244111 284 8529ft 111kts
23-Mar-20 12:01 34.912883 -119.281486 284 8529ft 111kts
23-Mar-20 12:02 34.918529 -119.318858 283 8529ft 111kts
23-Mar-20 12:03 34.924132 -119.355946 283 8531ft 110kts
23-Mar-20 12:04 34.929693 -119.392877 283 8532ft 110kts
23-Mar-20 12:05 34.935222 -119.429687 282 8532ft 109kts
23-Mar-20 12:06 34.940736 -119.466475 282 8533ft 109kts
23-Mar-20 12:07 34.946202 -119.503024 282 8534ft 109kts
23-Mar-20 12:08 34.951658 -119.539595 281 8534ft 109kts
23-Mar-20 12:09 34.957120 -119.576273 281 8536ft 109kts
23-Mar-20 12:10 34.962573 -119.612957 281 8538ft 109kts
23-Mar-20 12:11 34.968009 -119.649631 281 8540ft 109kts
23-Mar-20 12:12 34.973434 -119.686286 280 8544ft 110kts
23-Mar-20 12:13 34.979369 -119.726231 280 8086ft 124kts
23-Mar-20 12:15 34.985537 -119.767950 279 7587ft 124kts
23-Mar-20 12:16 34.991667 -119.809665 279 7088ft 124kts
23-Mar-20 12:17 34.997783 -119.851395 279 6588ft 124kts
23-Mar-20 12:18 35.003887 -119.893149 279 6087ft 124kts
23-Mar-20 12:19 35.015455 -119.932748 298 5587ft 126kts
23-Mar-20 12:20 35.036956 -119.966993 306 5086ft 126kts
23-Mar-20 12:21 35.058868 -119.999970 306 4584ft 124kts
23-Mar-20 12:22 35.078813 -120.030752 306 4542ft 110kts
23-Mar-20 12:23 35.087809 -120.065860 277 4542ft 109kts
23-Mar-20 12:24 35.091288 -120.103073 278 4542ft 110kts
23-Mar-20 12:25 35.094794 -120.140614 278 4542ft 111kts
23-Mar-20 12:26 35.098314 -120.178422 278 4542ft 112kts
23-Mar-20 12:27 35.101830 -120.216249 278 4543ft 113kts
23-Mar-20 12:28 35.105315 -120.253823 278 4543ft 113kts
23-Mar-20 12:29 35.108841 -120.290052 280 4450ft 104kts
23-Mar-20 12:30 35.110648 -120.324104 272 3272ft 97kts
23-Mar-20 12:30 35.114736 -120.350674 280 2504ft 98kts
23-Mar-20 12:32 35.119043 -120.385400 276 1858ft 88kts
23-Mar-20 12:33 35.124194 -120.414823 276 1865ft 87kts
23-Mar-20 12:33 35.126782 -120.440289 274 2128ft 91kts
23-Mar-20 12:34 35.130396 -120.472857 275 2175ft 108kts
23-Mar-20 12:36 35.135782 -120.514003 277 1779ft 104kts
23-Mar-20 12:36 35.135504 -120.540651 252 1357ft 101kts
23-Mar-20 12:37 35.119278 -120.561179 215 1055ft 84kts
23-Mar-20 12:38 35.104243 -120.573264 212 1156ft 64kts
23-Mar-20 12:39 35.088000 -120.582627 210 1217ft 75kts
23-Mar-20 12:40 35.082138 -120.599161 321 932ft 82kts
23-Mar-20 12:41 35.096757 -120.613262 300 248ft 70kts
23-Mar-20 12:42 35.102403 -120.623919 313 17ft 6kts
23-Mar-20 12:43 35.103492 -120.624631 223 17ft 3kts
23-Mar-20 12:44 35.103461 -120.624658 211 17ft 0kts
23-Mar-20 12:45 35.103461 -120.624658 211 17ft 0kts

Navigation Log

Ident Type
Flight plan parsing failed, navigation log unavailable